sensor_id;sensor_type;location;lat;lon;timestamp;pressure;altitude;pressure_sealevel;temperature;humidity
80333;BME280;69652;51.864;-2.246;2023-07-20T00:00:44;101677.63;;;16.09;62.73
80333;BME280;69652;51.864;-2.246;2023-07-20T00:03:13;101680.53;;;16.04;61.91
80333;BME280;69652;51.864;-2.246;2023-07-20T00:05:45;101680.97;;;15.97;62.49
80333;BME280;69652;51.864;-2.246;2023-07-20T00:08:11;101675.97;;;15.91;63.21
80333;BME280;69652;51.864;-2.246;2023-07-20T00:10:36;101674.06;;;16.00;62.28
80333;BME280;69652;51.864;-2.246;2023-07-20T00:13:02;101673.59;;;16.06;62.86
80333;BME280;69652;51.864;-2.246;2023-07-20T00:15:27;101673.78;;;16.10;62.43
80333;BME280;69652;51.864;-2.246;2023-07-20T00:17:53;101679.88;;;16.07;62.74
80333;BME280;69652;51.864;-2.246;2023-07-20T00:20:18;101671.66;;;16.07;62.93
80333;BME280;69652;51.864;-2.246;2023-07-20T00:22:44;101674.72;;;16.05;62.41
80333;BME280;69652;51.864;-2.246;2023-07-20T00:25:09;101678.53;;;15.96;63.72
80333;BME280;69652;51.864;-2.246;2023-07-20T00:27:37;101675.66;;;15.92;63.70
80333;BME280;69652;51.864;-2.246;2023-07-20T00:30:03;101672.72;;;15.88;64.25
80333;BME280;69652;51.864;-2.246;2023-07-20T00:32:29;101679.50;;;15.91;62.46
80333;BME280;69652;51.864;-2.246;2023-07-20T00:34:54;101672.56;;;15.94;62.96
80333;BME280;69652;51.864;-2.246;2023-07-20T00:37:20;101674.19;;;15.95;63.84
80333;BME280;69652;51.864;-2.246;2023-07-20T00:39:45;101681.66;;;16.03;62.97
80333;BME280;69652;51.864;-2.246;2023-07-20T00:42:11;101671.13;;;15.87;62.82
80333;BME280;69652;51.864;-2.246;2023-07-20T00:44:36;101674.47;;;15.84;63.10
80333;BME280;69652;51.864;-2.246;2023-07-20T00:47:02;101672.34;;;15.81;63.26
80333;BME280;69652;51.864;-2.246;2023-07-20T00:49:28;101668.78;;;15.72;63.45
80333;BME280;69652;51.864;-2.246;2023-07-20T00:51:53;101666.50;;;15.66;65.08
80333;BME280;69652;51.864;-2.246;2023-07-20T00:54:19;101663.31;;;15.72;64.07
80333;BME280;69652;51.864;-2.246;2023-07-20T00:56:44;101667.16;;;15.71;64.19
80333;BME280;69652;51.864;-2.246;2023-07-20T00:59:11;101664.13;;;15.73;64.55
80333;BME280;69652;51.864;-2.246;2023-07-20T01:01:36;101670.06;;;15.44;64.78
80333;BME280;69652;51.864;-2.246;2023-07-20T01:04:02;101662.16;;;15.42;64.75
80333;BME280;69652;51.864;-2.246;2023-07-20T01:06:45;101669.88;;;15.40;66.28
80333;BME280;69652;51.864;-2.246;2023-07-20T01:09:19;101660.81;;;15.31;65.02
80333;BME280;69652;51.864;-2.246;2023-07-20T01:14:24;101663.97;;;15.25;65.41
80333;BME280;69652;51.864;-2.246;2023-07-20T01:16:50;101652.84;;;15.21;66.21
80333;BME280;69652;51.864;-2.246;2023-07-20T01:19:18;101653.16;;;15.20;66.55
80333;BME280;69652;51.864;-2.246;2023-07-20T01:27:25;101658.50;;;15.25;66.67
80333;BME280;69652;51.864;-2.246;2023-07-20T01:30:10;101656.41;;;15.22;67.57
80333;BME280;69652;51.864;-2.246;2023-07-20T01:32:40;101657.53;;;15.21;67.38
80333;BME280;69652;51.864;-2.246;2023-07-20T01:35:08;101654.53;;;15.08;67.19
80333;BME280;69652;51.864;-2.246;2023-07-20T01:37:37;101655.16;;;15.05;66.86
80333;BME280;69652;51.864;-2.246;2023-07-20T01:40:03;101659.44;;;14.98;67.46
80333;BME280;69652;51.864;-2.246;2023-07-20T01:42:29;101662.78;;;14.95;67.31
80333;BME280;69652;51.864;-2.246;2023-07-20T01:44:55;101660.06;;;14.95;67.22
80333;BME280;69652;51.864;-2.246;2023-07-20T01:47:20;101659.34;;;14.89;67.19
80333;BME280;69652;51.864;-2.246;2023-07-20T01:49:46;101659.66;;;14.88;68.53
80333;BME280;69652;51.864;-2.246;2023-07-20T01:52:11;101664.97;;;14.84;67.09
80333;BME280;69652;51.864;-2.246;2023-07-20T01:54:37;101660.59;;;14.83;68.07
80333;BME280;69652;51.864;-2.246;2023-07-20T01:57:02;101659.28;;;14.80;67.58
80333;BME280;69652;51.864;-2.246;2023-07-20T01:59:29;101657.69;;;14.79;67.80
80333;BME280;69652;51.864;-2.246;2023-07-20T02:01:54;101658.13;;;14.73;69.03
80333;BME280;69652;51.864;-2.246;2023-07-20T02:04:20;101651.44;;;14.65;69.15
80333;BME280;69652;51.864;-2.246;2023-07-20T02:06:45;101650.03;;;14.54;68.43
80333;BME280;69652;51.864;-2.246;2023-07-20T02:09:11;101653.41;;;14.51;69.46
80333;BME280;69652;51.864;-2.246;2023-07-20T02:11:36;101652.28;;;14.52;69.24
80333;BME280;69652;51.864;-2.246;2023-07-20T02:14:01;101657.06;;;14.47;69.97
80333;BME280;69652;51.864;-2.246;2023-07-20T02:16:27;101659.28;;;14.44;68.85
80333;BME280;69652;51.864;-2.246;2023-07-20T02:18:52;101654.13;;;14.43;69.37
80333;BME280;69652;51.864;-2.246;2023-07-20T02:21:18;101656.69;;;14.39;69.96
80333;BME280;69652;51.864;-2.246;2023-07-20T02:23:43;101653.41;;;14.37;69.65
80333;BME280;69652;51.864;-2.246;2023-07-20T02:26:09;101653.09;;;14.39;70.12
80333;BME280;69652;51.864;-2.246;2023-07-20T02:28:34;101656.44;;;14.36;69.98
80333;BME280;69652;51.864;-2.246;2023-07-20T02:31:00;101651.38;;;14.29;69.16
80333;BME280;69652;51.864;-2.246;2023-07-20T02:33:26;101648.97;;;14.28;69.59
80333;BME280;69652;51.864;-2.246;2023-07-20T02:35:52;101648.16;;;14.27;70.13
80333;BME280;69652;51.864;-2.246;2023-07-20T02:38:17;101653.00;;;14.17;69.44
80333;BME280;69652;51.864;-2.246;2023-07-20T02:40:43;101657.56;;;14.07;70.61
80333;BME280;69652;51.864;-2.246;2023-07-20T02:43:08;101653.41;;;14.10;70.36
80333;BME280;69652;51.864;-2.246;2023-07-20T02:45:35;101648.47;;;14.12;70.26
80333;BME280;69652;51.864;-2.246;2023-07-20T02:48:00;101649.66;;;14.06;70.72
80333;BME280;69652;51.864;-2.246;2023-07-20T02:50:26;101650.38;;;13.98;70.67
80333;BME280;69652;51.864;-2.246;2023-07-20T02:52:51;101647.16;;;13.96;71.93
80333;BME280;69652;51.864;-2.246;2023-07-20T02:55:17;101655.84;;;13.84;71.23
80333;BME280;69652;51.864;-2.246;2023-07-20T02:57:42;101654.53;;;13.82;70.84
80333;BME280;69652;51.864;-2.246;2023-07-20T03:00:08;101658.16;;;13.77;69.85
80333;BME280;69652;51.864;-2.246;2023-07-20T03:02:34;101652.19;;;13.75;69.92
80333;BME280;69652;51.864;-2.246;2023-07-20T03:05:00;101656.13;;;13.69;70.98
80333;BME280;69652;51.864;-2.246;2023-07-20T03:07:30;101657.94;;;13.73;72.46
80333;BME280;69652;51.864;-2.246;2023-07-20T03:09:55;101660.09;;;13.77;71.54
80333;BME280;69652;51.864;-2.246;2023-07-20T03:12:21;101655.81;;;13.70;71.46
80333;BME280;69652;51.864;-2.246;2023-07-20T03:14:47;101659.19;;;13.67;71.32
80333;BME280;69652;51.864;-2.246;2023-07-20T03:17:12;101641.47;;;13.65;71.46
80333;BME280;69652;51.864;-2.246;2023-07-20T03:19:38;101647.63;;;13.70;71.63
80333;BME280;69652;51.864;-2.246;2023-07-20T03:22:03;101646.34;;;13.68;71.40
80333;BME280;69652;51.864;-2.246;2023-07-20T03:24:29;101652.59;;;13.68;72.16
80333;BME280;69652;51.864;-2.246;2023-07-20T03:26:54;101646.72;;;13.61;72.73
80333;BME280;69652;51.864;-2.246;2023-07-20T03:29:20;101651.66;;;13.59;72.62
80333;BME280;69652;51.864;-2.246;2023-07-20T03:31:45;101652.78;;;13.58;72.37
80333;BME280;69652;51.864;-2.246;2023-07-20T03:34:11;101650.44;;;13.52;73.32
80333;BME280;69652;51.864;-2.246;2023-07-20T03:36:36;101654.28;;;13.51;73.19
80333;BME280;69652;51.864;-2.246;2023-07-20T03:39:02;101655.69;;;13.48;73.36
80333;BME280;69652;51.864;-2.246;2023-07-20T03:41:28;101655.97;;;13.47;73.10
80333;BME280;69652;51.864;-2.246;2023-07-20T03:43:53;101649.41;;;13.48;73.06
80333;BME280;69652;51.864;-2.246;2023-07-20T03:46:19;101653.25;;;13.47;72.63
80333;BME280;69652;51.864;-2.246;2023-07-20T03:48:45;101654.16;;;13.42;73.44
80333;BME280;69652;51.864;-2.246;2023-07-20T03:51:10;101651.97;;;13.44;73.20
80333;BME280;69652;51.864;-2.246;2023-07-20T03:53:36;101646.19;;;13.46;72.87
80333;BME280;69652;51.864;-2.246;2023-07-20T03:56:01;101647.09;;;13.41;72.99
80333;BME280;69652;51.864;-2.246;2023-07-20T03:58:27;101649.59;;;13.37;74.25
80333;BME280;69652;51.864;-2.246;2023-07-20T04:00:52;101657.78;;;13.37;74.33
80333;BME280;69652;51.864;-2.246;2023-07-20T04:03:19;101653.06;;;13.43;73.38
80333;BME280;69652;51.864;-2.246;2023-07-20T04:05:44;101656.31;;;13.45;73.97
80333;BME280;69652;51.864;-2.246;2023-07-20T04:08:10;101659.03;;;13.45;74.46
80333;BME280;69652;51.864;-2.246;2023-07-20T04:10:36;101645.34;;;13.31;74.56
80333;BME280;69652;51.864;-2.246;2023-07-20T04:13:02;101642.81;;;13.35;75.07
80333;BME280;69652;51.864;-2.246;2023-07-20T04:15:27;101640.31;;;13.38;74.44
80333;BME280;69652;51.864;-2.246;2023-07-20T04:17:53;101644.97;;;13.38;74.04
80333;BME280;69652;51.864;-2.246;2023-07-20T04:20:18;101638.81;;;13.32;74.60
80333;BME280;69652;51.864;-2.246;2023-07-20T04:22:44;101645.19;;;13.42;74.77
80333;BME280;69652;51.864;-2.246;2023-07-20T04:25:09;101641.03;;;13.44;74.30
80333;BME280;69652;51.864;-2.246;2023-07-20T04:27:36;101627.50;;;13.39;74.59
80333;BME280;69652;51.864;-2.246;2023-07-20T04:30:02;101636.69;;;13.43;73.29
80333;BME280;69652;51.864;-2.246;2023-07-20T04:32:28;101638.31;;;13.44;74.47
80333;BME280;69652;51.864;-2.246;2023-07-20T04:34:54;101637.81;;;13.42;73.48
80333;BME280;69652;51.864;-2.246;2023-07-20T04:37:19;101634.06;;;13.38;74.42
80333;BME280;69652;51.864;-2.246;2023-07-20T04:39:45;101639.22;;;13.40;73.52
80333;BME280;69652;51.864;-2.246;2023-07-20T04:42:11;101636.06;;;13.46;74.08
80333;BME280;69652;51.864;-2.246;2023-07-20T04:44:36;101643.66;;;13.49;74.55
80333;BME280;69652;51.864;-2.246;2023-07-20T04:47:02;101642.66;;;13.59;73.91
80333;BME280;69652;51.864;-2.246;2023-07-20T04:49:28;101637.34;;;13.67;72.93
80333;BME280;69652;51.864;-2.246;2023-07-20T04:51:53;101642.81;;;13.67;72.45
80333;BME280;69652;51.864;-2.246;2023-07-20T04:54:19;101636.13;;;13.73;73.32
80333;BME280;69652;51.864;-2.246;2023-07-20T04:56:45;101640.38;;;13.80;72.66
80333;BME280;69652;51.864;-2.246;2023-07-20T04:59:10;101644.22;;;13.79;73.48
80333;BME280;69652;51.864;-2.246;2023-07-20T05:01:36;101636.84;;;13.65;73.77
80333;BME280;69652;51.864;-2.246;2023-07-20T05:04:01;101629.78;;;13.78;73.01
80333;BME280;69652;51.864;-2.246;2023-07-20T05:06:27;101635.41;;;13.82;73.15
80333;BME280;69652;51.864;-2.246;2023-07-20T05:08:52;101632.00;;;13.90;72.84
80333;BME280;69652;51.864;-2.246;2023-07-20T05:11:18;101634.41;;;14.05;72.80
80333;BME280;69652;51.864;-2.246;2023-07-20T05:13:43;101636.66;;;14.03;72.33
80333;BME280;69652;51.864;-2.246;2023-07-20T05:16:08;101634.41;;;13.78;72.64
80333;BME280;69652;51.864;-2.246;2023-07-20T05:18:34;101638.78;;;13.92;72.27
80333;BME280;69652;51.864;-2.246;2023-07-20T05:20:59;101638.56;;;14.02;72.64
80333;BME280;69652;51.864;-2.246;2023-07-20T05:23:25;101639.09;;;13.91;71.69
80333;BME280;69652;51.864;-2.246;2023-07-20T05:25:58;101632.00;;;13.90;72.08
80333;BME280;69652;51.864;-2.246;2023-07-20T05:28:24;101643.22;;;13.88;72.33
80333;BME280;69652;51.864;-2.246;2023-07-20T05:30:51;101634.31;;;14.10;71.66
80333;BME280;69652;51.864;-2.246;2023-07-20T05:33:18;101636.44;;;14.27;71.56
80333;BME280;69652;51.864;-2.246;2023-07-20T05:35:43;101636.81;;;14.34;71.94
80333;BME280;69652;51.864;-2.246;2023-07-20T05:38:09;101636.81;;;14.34;72.05
80333;BME280;69652;51.864;-2.246;2023-07-20T05:40:37;101634.28;;;14.37;70.73
80333;BME280;69652;51.864;-2.246;2023-07-20T05:43:03;101639.97;;;14.27;71.11
80333;BME280;69652;51.864;-2.246;2023-07-20T05:45:28;101642.28;;;14.20;71.86
80333;BME280;69652;51.864;-2.246;2023-07-20T05:47:54;101641.56;;;14.28;70.93
80333;BME280;69652;51.864;-2.246;2023-07-20T05:50:19;101631.94;;;14.31;71.82
80333;BME280;69652;51.864;-2.246;2023-07-20T05:52:44;101645.75;;;14.12;72.22
80333;BME280;69652;51.864;-2.246;2023-07-20T05:55:10;101639.06;;;14.18;71.86
80333;BME280;69652;51.864;-2.246;2023-07-20T05:57:35;101645.81;;;14.21;72.40
80333;BME280;69652;51.864;-2.246;2023-07-20T06:00:02;101644.50;;;14.18;71.78
80333;BME280;69652;51.864;-2.246;2023-07-20T06:02:28;101644.13;;;14.11;71.65
80333;BME280;69652;51.864;-2.246;2023-07-20T06:04:54;101649.38;;;14.21;72.06
80333;BME280;69652;51.864;-2.246;2023-07-20T06:07:19;101645.03;;;14.20;71.96
80333;BME280;69652;51.864;-2.246;2023-07-20T06:09:45;101639.16;;;14.40;71.69
80333;BME280;69652;51.864;-2.246;2023-07-20T06:12:10;101631.50;;;14.65;71.42
80333;BME280;69652;51.864;-2.246;2023-07-20T06:14:36;101630.88;;;14.68;71.03
80333;BME280;69652;51.864;-2.246;2023-07-20T06:17:01;101631.34;;;14.84;71.15
80333;BME280;69652;51.864;-2.246;2023-07-20T06:19:27;101640.16;;;14.80;69.61
80333;BME280;69652;51.864;-2.246;2023-07-20T06:21:52;101640.41;;;14.93;69.68
80333;BME280;69652;51.864;-2.246;2023-07-20T06:24:18;101638.59;;;14.88;69.99
80333;BME280;69652;51.864;-2.246;2023-07-20T06:26:43;101636.25;;;14.95;70.45
80333;BME280;69652;51.864;-2.246;2023-07-20T06:29:09;101634.84;;;14.98;71.13
80333;BME280;69652;51.864;-2.246;2023-07-20T06:31:36;101640.78;;;15.00;70.82
80333;BME280;69652;51.864;-2.246;2023-07-20T06:34:02;101641.31;;;14.66;71.52
80333;BME280;69652;51.864;-2.246;2023-07-20T06:36:27;101641.84;;;14.90;72.00
80333;BME280;69652;51.864;-2.246;2023-07-20T06:38:53;101633.84;;;15.16;70.79
80333;BME280;69652;51.864;-2.246;2023-07-20T06:41:19;101641.22;;;14.93;71.68
80333;BME280;69652;51.864;-2.246;2023-07-20T06:43:45;101644.84;;;15.02;71.56
80333;BME280;69652;51.864;-2.246;2023-07-20T06:46:10;101642.72;;;15.22;70.79
80333;BME280;69652;51.864;-2.246;2023-07-20T06:48:36;101643.41;;;15.27;70.30
80333;BME280;69652;51.864;-2.246;2023-07-20T06:51:01;101637.09;;;15.49;70.68
80333;BME280;69652;51.864;-2.246;2023-07-20T06:53:28;101633.44;;;15.31;70.15
80333;BME280;69652;51.864;-2.246;2023-07-20T06:55:53;101635.09;;;15.10;71.07
80333;BME280;69652;51.864;-2.246;2023-07-20T06:58:19;101638.75;;;15.05;70.61
80333;BME280;69652;51.864;-2.246;2023-07-20T07:00:46;101633.78;;;15.07;70.86
80333;BME280;69652;51.864;-2.246;2023-07-20T07:03:12;101635.38;;;15.31;71.01
80333;BME280;69652;51.864;-2.246;2023-07-20T07:05:37;101628.78;;;15.32;70.25
80333;BME280;69652;51.864;-2.246;2023-07-20T07:08:04;101633.63;;;15.12;71.58
80333;BME280;69652;51.864;-2.246;2023-07-20T07:10:30;101632.03;;;15.34;70.70
80333;BME280;69652;51.864;-2.246;2023-07-20T07:12:55;101628.66;;;15.37;69.60
80333;BME280;69652;51.864;-2.246;2023-07-20T07:15:21;101635.53;;;15.34;70.10
80333;BME280;69652;51.864;-2.246;2023-07-20T07:17:46;101621.31;;;15.24;70.73
80333;BME280;69652;51.864;-2.246;2023-07-20T07:20:12;101627.25;;;15.17;70.94
80333;BME280;69652;51.864;-2.246;2023-07-20T07:22:38;101623.59;;;15.22;70.61
80333;BME280;69652;51.864;-2.246;2023-07-20T07:25:03;101625.97;;;15.23;70.30
80333;BME280;69652;51.864;-2.246;2023-07-20T07:27:29;101628.78;;;15.32;70.06
80333;BME280;69652;51.864;-2.246;2023-07-20T07:29:54;101629.38;;;15.51;70.14
80333;BME280;69652;51.864;-2.246;2023-07-20T07:32:20;101616.97;;;15.45;69.66
80333;BME280;69652;51.864;-2.246;2023-07-20T07:34:46;101621.13;;;15.73;68.68
80333;BME280;69652;51.864;-2.246;2023-07-20T07:37:13;101608.03;;;15.62;68.46
80333;BME280;69652;51.864;-2.246;2023-07-20T07:39:39;101616.44;;;15.65;68.53
80333;BME280;69652;51.864;-2.246;2023-07-20T07:42:05;101615.34;;;15.44;68.65
80333;BME280;69652;51.864;-2.246;2023-07-20T07:44:31;101614.19;;;15.67;68.30
80333;BME280;69652;51.864;-2.246;2023-07-20T07:46:56;101615.28;;;16.06;66.97
80333;BME280;69652;51.864;-2.246;2023-07-20T07:49:22;101611.09;;;16.08;66.78
80333;BME280;69652;51.864;-2.246;2023-07-20T07:51:48;101605.72;;;15.86;67.87
80333;BME280;69652;51.864;-2.246;2023-07-20T07:54:13;101609.34;;;16.12;67.85
80333;BME280;69652;51.864;-2.246;2023-07-20T07:56:39;101608.22;;;16.31;66.54
80333;BME280;69652;51.864;-2.246;2023-07-20T07:59:06;101611.78;;;16.22;67.56
80333;BME280;69652;51.864;-2.246;2023-07-20T08:01:32;101616.31;;;16.27;66.17
80333;BME280;69652;51.864;-2.246;2023-07-20T08:03:57;101615.50;;;16.35;64.83
80333;BME280;69652;51.864;-2.246;2023-07-20T08:06:23;101613.56;;;16.36;65.49
80333;BME280;69652;51.864;-2.246;2023-07-20T08:08:49;101609.59;;;16.68;64.44
80333;BME280;69652;51.864;-2.246;2023-07-20T08:11:15;101619.09;;;16.79;64.06
80333;BME280;69652;51.864;-2.246;2023-07-20T08:13:43;101603.28;;;16.93;63.06
80333;BME280;69652;51.864;-2.246;2023-07-20T08:16:08;101610.41;;;16.68;62.81
80333;BME280;69652;51.864;-2.246;2023-07-20T08:18:34;101601.69;;;16.66;62.38
80333;BME280;69652;51.864;-2.246;2023-07-20T08:20:59;101604.25;;;16.97;62.51
80333;BME280;69652;51.864;-2.246;2023-07-20T08:23:24;101606.19;;;16.88;62.00
80333;BME280;69652;51.864;-2.246;2023-07-20T08:25:50;101601.00;;;17.12;61.88
80333;BME280;69652;51.864;-2.246;2023-07-20T08:28:16;101595.63;;;17.33;60.18
80333;BME280;69652;51.864;-2.246;2023-07-20T08:30:44;101594.63;;;17.46;61.18
80333;BME280;69652;51.864;-2.246;2023-07-20T08:33:13;101596.25;;;17.39;59.61
80333;BME280;69652;51.864;-2.246;2023-07-20T08:35:39;101591.50;;;17.65;59.94
80333;BME280;69652;51.864;-2.246;2023-07-20T08:38:05;101589.84;;;17.73;60.03
80333;BME280;69652;51.864;-2.246;2023-07-20T08:40:39;101595.38;;;17.64;59.58
80333;BME280;69652;51.864;-2.246;2023-07-20T08:43:05;101584.69;;;17.71;59.16
80333;BME280;69652;51.864;-2.246;2023-07-20T08:45:33;101590.72;;;17.47;60.54
80333;BME280;69652;51.864;-2.246;2023-07-20T08:48:00;101592.13;;;17.62;59.87
80333;BME280;69652;51.864;-2.246;2023-07-20T08:50:28;101599.00;;;17.39;61.34
80333;BME280;69652;51.864;-2.246;2023-07-20T08:52:57;101594.34;;;17.77;60.38
80333;BME280;69652;51.864;-2.246;2023-07-20T08:55:23;101585.88;;;17.91;60.14
80333;BME280;69652;51.864;-2.246;2023-07-20T08:57:56;101586.47;;;18.05;59.28
80333;BME280;69652;51.864;-2.246;2023-07-20T09:00:24;101582.31;;;18.20;59.29
80333;BME280;69652;51.864;-2.246;2023-07-20T09:02:51;101582.22;;;18.58;58.31
80333;BME280;69652;51.864;-2.246;2023-07-20T09:05:17;101585.47;;;18.51;56.82
80333;BME280;69652;51.864;-2.246;2023-07-20T09:07:43;101579.53;;;18.70;55.64
80333;BME280;69652;51.864;-2.246;2023-07-20T09:10:09;101572.34;;;18.36;54.63
80333;BME280;69652;51.864;-2.246;2023-07-20T09:12:37;101573.72;;;18.84;54.43
80333;BME280;69652;51.864;-2.246;2023-07-20T09:15:04;101569.03;;;18.84;53.75
80333;BME280;69652;51.864;-2.246;2023-07-20T09:17:30;101567.44;;;19.28;53.27
80333;BME280;69652;51.864;-2.246;2023-07-20T09:19:55;101570.31;;;18.87;53.75
80333;BME280;69652;51.864;-2.246;2023-07-20T09:22:20;101566.56;;;19.48;52.48
80333;BME280;69652;51.864;-2.246;2023-07-20T09:24:46;101568.53;;;19.84;52.06
80333;BME280;69652;51.864;-2.246;2023-07-20T09:27:12;101562.44;;;19.91;51.66
80333;BME280;69652;51.864;-2.246;2023-07-20T09:29:50;101556.97;;;20.31;51.24
80333;BME280;69652;51.864;-2.246;2023-07-20T09:32:21;101556.63;;;20.73;50.43
80333;BME280;69652;51.864;-2.246;2023-07-20T09:34:46;101557.91;;;21.19;50.03
80333;BME280;69652;51.864;-2.246;2023-07-20T09:37:12;101553.75;;;21.13;50.33
80333;BME280;69652;51.864;-2.246;2023-07-20T09:39:45;101554.84;;;21.08;50.08
80333;BME280;69652;51.864;-2.246;2023-07-20T09:42:15;101557.69;;;20.28;51.65
80333;BME280;69652;51.864;-2.246;2023-07-20T09:44:43;101557.81;;;20.07;51.88
80333;BME280;69652;51.864;-2.246;2023-07-20T09:47:08;101556.47;;;19.65;52.24
80333;BME280;69652;51.864;-2.246;2023-07-20T09:49:41;101552.16;;;20.68;50.88
80333;BME280;69652;51.864;-2.246;2023-07-20T09:52:11;101553.97;;;20.48;50.51
80333;BME280;69652;51.864;-2.246;2023-07-20T09:54:40;101553.66;;;20.66;50.67
80333;BME280;69652;51.864;-2.246;2023-07-20T09:57:09;101546.22;;;20.54;50.65
80333;BME280;69652;51.864;-2.246;2023-07-20T09:59:37;101547.09;;;20.18;51.03
80333;BME280;69652;51.864;-2.246;2023-07-20T10:02:07;101549.09;;;20.58;50.81
80333;BME280;69652;51.864;-2.246;2023-07-20T10:04:36;101539.03;;;21.21;48.98
80333;BME280;69652;51.864;-2.246;2023-07-20T10:07:05;101544.38;;;20.86;48.82
80333;BME280;69652;51.864;-2.246;2023-07-20T10:09:37;101537.47;;;21.08;48.13
80333;BME280;69652;51.864;-2.246;2023-07-20T10:12:05;101538.19;;;21.68;47.75
80333;BME280;69652;51.864;-2.246;2023-07-20T10:14:35;101520.38;;;22.35;46.67
80333;BME280;69652;51.864;-2.246;2023-07-20T10:17:05;101525.53;;;22.37;46.63
80333;BME280;69652;51.864;-2.246;2023-07-20T10:19:48;101529.72;;;21.60;46.98
80333;BME280;69652;51.864;-2.246;2023-07-20T10:22:19;101531.44;;;20.74;48.77
80333;BME280;69652;51.864;-2.246;2023-07-20T10:24:50;101541.56;;;20.42;51.01
80333;BME280;69652;51.864;-2.246;2023-07-20T10:27:20;101535.88;;;20.63;50.32
80333;BME280;69652;51.864;-2.246;2023-07-20T10:29:46;101528.88;;;20.53;50.71
80333;BME280;69652;51.864;-2.246;2023-07-20T10:32:12;101536.41;;;20.69;48.72
80333;BME280;69652;51.864;-2.246;2023-07-20T10:34:39;101528.53;;;20.83;48.72
80333;BME280;69652;51.864;-2.246;2023-07-20T10:37:04;101516.94;;;22.03;46.67
80333;BME280;69652;51.864;-2.246;2023-07-20T10:39:33;101514.19;;;24.28;39.99
80333;BME280;69652;51.864;-2.246;2023-07-20T10:42:01;101509.94;;;24.37;40.94
80333;BME280;69652;51.864;-2.246;2023-07-20T10:44:27;101513.06;;;25.06;38.26
80333;BME280;69652;51.864;-2.246;2023-07-20T10:47:01;101506.81;;;23.56;42.10
80333;BME280;69652;51.864;-2.246;2023-07-20T10:49:28;101508.06;;;22.52;44.49
80333;BME280;69652;51.864;-2.246;2023-07-20T10:51:59;101508.88;;;21.98;45.39
80333;BME280;69652;51.864;-2.246;2023-07-20T10:56:55;101516.44;;;21.03;49.69
80333;BME280;69652;51.864;-2.246;2023-07-20T11:01:50;101499.13;;;23.23;43.71
80333;BME280;69652;51.864;-2.246;2023-07-20T11:04:37;101486.94;;;24.07;41.38
80333;BME280;69652;51.864;-2.246;2023-07-20T11:07:03;101492.03;;;25.05;38.91
80333;BME280;69652;51.864;-2.246;2023-07-20T11:09:34;101485.03;;;25.26;36.68
80333;BME280;69652;51.864;-2.246;2023-07-20T11:12:29;101481.78;;;25.61;37.14
80333;BME280;69652;51.864;-2.246;2023-07-20T11:14:58;101468.28;;;26.56;37.45
80333;BME280;69652;51.864;-2.246;2023-07-20T11:17:31;101468.06;;;25.38;38.46
80333;BME280;69652;51.864;-2.246;2023-07-20T11:19:58;101471.13;;;24.78;39.39
80333;BME280;69652;51.864;-2.246;2023-07-20T11:22:26;101470.94;;;24.60;39.29
80333;BME280;69652;51.864;-2.246;2023-07-20T11:24:55;101471.38;;;24.29;40.27
80333;BME280;69652;51.864;-2.246;2023-07-20T11:27:21;101468.88;;;23.90;41.81
80333;BME280;69652;51.864;-2.246;2023-07-20T11:29:48;101474.00;;;22.90;41.88
80333;BME280;69652;51.864;-2.246;2023-07-20T11:32:20;101473.28;;;22.51;43.58
80333;BME280;69652;51.864;-2.246;2023-07-20T11:34:47;101464.53;;;22.10;44.38
80333;BME280;69652;51.864;-2.246;2023-07-20T11:37:13;101469.06;;;21.99;44.86
80333;BME280;69652;51.864;-2.246;2023-07-20T11:39:38;101470.78;;;21.72;44.69
80333;BME280;69652;51.864;-2.246;2023-07-20T11:42:05;101471.53;;;21.69;45.13
80333;BME280;69652;51.864;-2.246;2023-07-20T11:44:31;101466.16;;;21.76;45.30
80333;BME280;69652;51.864;-2.246;2023-07-20T11:47:07;101468.72;;;21.85;44.92
80333;BME280;69652;51.864;-2.246;2023-07-20T11:49:37;101477.00;;;21.85;44.51
80333;BME280;69652;51.864;-2.246;2023-07-20T11:52:07;101470.72;;;21.69;45.02
80333;BME280;69652;51.864;-2.246;2023-07-20T11:54:34;101464.97;;;21.58;44.73
80333;BME280;69652;51.864;-2.246;2023-07-20T11:57:03;101475.13;;;21.38;45.53
80333;BME280;69652;51.864;-2.246;2023-07-20T11:59:30;101467.84;;;21.46;45.85
80333;BME280;69652;51.864;-2.246;2023-07-20T12:01:56;101468.47;;;21.39;45.60
80333;BME280;69652;51.864;-2.246;2023-07-20T12:04:23;101474.72;;;21.20;46.41
80333;BME280;69652;51.864;-2.246;2023-07-20T12:06:48;101482.94;;;20.89;46.42
80333;BME280;69652;51.864;-2.246;2023-07-20T12:09:16;101473.06;;;21.04;46.24
80333;BME280;69652;51.864;-2.246;2023-07-20T12:11:43;101478.50;;;21.16;46.62
80333;BME280;69652;51.864;-2.246;2023-07-20T12:14:10;101472.38;;;21.07;47.95
80333;BME280;69652;51.864;-2.246;2023-07-20T12:16:36;101473.59;;;20.78;48.42
80333;BME280;69652;51.864;-2.246;2023-07-20T12:19:11;101475.31;;;20.27;50.30
80333;BME280;69652;51.864;-2.246;2023-07-20T12:21:38;101480.50;;;20.56;49.49
80333;BME280;69652;51.864;-2.246;2023-07-20T12:24:06;101480.81;;;20.39;51.30
80333;BME280;69652;51.864;-2.246;2023-07-20T12:26:33;101473.44;;;20.31;51.61
80333;BME280;69652;51.864;-2.246;2023-07-20T12:28:59;101475.25;;;20.11;52.00
80333;BME280;69652;51.864;-2.246;2023-07-20T12:31:25;101491.09;;;20.14;52.36
80333;BME280;69652;51.864;-2.246;2023-07-20T12:33:52;101493.78;;;19.86;53.75
80333;BME280;69652;51.864;-2.246;2023-07-20T12:36:18;101490.59;;;19.72;54.18
80333;BME280;69652;51.864;-2.246;2023-07-20T12:38:44;101492.47;;;19.56;56.75
80333;BME280;69652;51.864;-2.246;2023-07-20T12:41:11;101487.63;;;19.53;56.48
80333;BME280;69652;51.864;-2.246;2023-07-20T12:43:41;101490.69;;;19.27;56.63
80333;BME280;69652;51.864;-2.246;2023-07-20T12:46:07;101485.09;;;19.23;57.42
80333;BME280;69652;51.864;-2.246;2023-07-20T12:48:33;101488.88;;;19.31;56.89
80333;BME280;69652;51.864;-2.246;2023-07-20T12:50:59;101489.34;;;19.45;57.40